DAUHDAAE

Guest
Details From DAUH - OUED IRARA
To DAAE - SOUMMAM
Flight Number -
Tags generated
Created
Modified
Stats Distance 327 nm / 605 km
Max Altitude 34,000 ft / 10,363 m
Waypoints 6
Social Downloads 2
Likes 0
Share VATSIM

Download

Looking for another format? Having issues loading an existing format? Contact us
Advertisement - Login to hide

Notes

Basic altitude profile: - Ascent Rate: 2500ft/min - Ascent Speed: 350kts - Cruise Altitude: 25000ft - Cruise Speed: 420kts - Descent Rate: 1500ft/min - Descent Speed: 250kts Options: - Use NATs: yes - Use PACOTS: yes - Use low airways: yes - Use high airways: yes

Route

DAUH TGU UV508 TAJEN DAAE

ID Type Via Altitude Latitude Longitude Leg Dist Tot Dist Heading (true) Name
O DAUH APT - 0 ft / 0 m 31.67290˚ 6.14046˚ - 0 nm - OUED IRARA
TGU VOR - 28,700 ft / 8,748 m 33.05694˚ 6.08861˚ 83 nm 83 nm 358° / 358° TOUGGOURT VOR-DME
ROANE FIX UV508 (AWY-HI) 34,000 ft / 10,363 m 33.98472˚ 5.87250˚ 56 nm 139 nm 349° / 349° -
BIS VOR UV508 (AWY-HI) 30,000 ft / 9,144 m 34.77500˚ 5.75833˚ 47 nm 187 nm 353° / 353° BISKRA VOR-DME
TAJEN FIX UV508 (AWY-HI) 31,000 ft / 9,449 m 36.37361˚ 5.85306˚ 96 nm 283 nm 3° / 3° -
O DAAE APT - 0 ft / 0 m 36.71181˚ 5.06986˚ 42 nm 326 nm 298° / 298° SOUMMAM

Altitude Profile

Advertisement - Login to hide

Weather


0- 5 10 15 20 25 30 35+ Temperature / ° C

Clouds and Precipitation
Forecast for 2017-12-12 06:00 UTC. Updated 2 hours ago

Ground ~20,000 ft ~40,000 ft Winds

DAUH

Details ICAO DAUH (HME)
Name OUED IRARA
Region Algeria
Timezone Africa/Algiers (UTC+1.0)
Stats Elevation 463 ft / 141 m (AMSL)
Location 31.672900° 6.140458°
Runways 1
Magnetic Variation 1.418° E

METAR

DAUH 120430Z 10005KT CAVOK 08/M00 Q1014

Decode

TAF

TAF DAUH 112300Z 1200/1224 14010KT CAVOK BECMG 1218/1222 VRB02KT

Decode

Departure Runways

ID Width Length Bearing (true) Bearing (mag) Surface Threshold Offset Overrun Length
18 148 ft / 45 m 9,952 ft / 3,034 m 184.21° 182.79° Asphalt 0 ft / 0 m 328 ft / 100 m
36 148 ft / 45 m 9,952 ft / 3,034 m 4.20° 2.78° Asphalt 0 ft / 0 m 328 ft / 100 m

DAAE

Details ICAO DAAE (BJA)
Name SOUMMAM
Region Algeria
Timezone Africa/Algiers (UTC+1.0)
Stats Elevation 20 ft / 6 m (AMSL)
Location 36.711805° 5.069862°
Runways 1
Magnetic Variation 1.444° E

METAR

DAAE 120400Z 25004KT 9999 FEW026 SCT233 12/06 Q1009

Decode

TAF

TAF DAAE 112300Z 1200/1224 22014KT 8000 NSC TEMPO 1200/1205 18015G30KT PROB30 TEMPO 1215/1224 RA FEW030TCU BKN040

Decode

Destination Runways

ID Width Length Bearing (true) Bearing (mag) Surface Threshold Offset Overrun Length
08 148 ft / 45 m 7,831 ft / 2,387 m 80.31° 78.87° Asphalt 0 ft / 0 m 204 ft / 62 m
26 148 ft / 45 m 7,831 ft / 2,387 m 260.32° 258.88° Asphalt 0 ft / 0 m 113 ft / 34 m

Approach Navaids

Runway Type Ident Frequency Range Bearing (true) Bearing (mag) Slope Elevation
26 Localiser BJ 110.50 MHz 18 nm / 33 km 261.39° 259.95° - 20 ft / 6 m (AMSL)
26 DME BJ 110.50 MHz 18 nm / 33 km - - - 20 ft / 6 m (AMSL)